ALLIED1 EPOK-EPOK
Flight info
| Callsign | ALLIED1 |
|---|---|
| Flight time | 0h 31m |
| Altitude | 1500 |
| Route | EPOKO EPOKOM EPGDN EPGD EPDGN EPOKM EPOKO |
| Aircraft | MI8/M-VGD/C |
Departure
| Time | 2026-04-21 18:32 |
|---|---|
| Airport | Oksywie Air Base / Gdynia-Kosakowo Airfield (EPOK) |
Arrival
| Time | 2026-04-21 19:04 |
|---|---|
| Airport | Oksywie Air Base / Gdynia-Kosakowo Airfield (EPOK) |
| Time | Latitude | Longitude | Altitude | Speed | Heading |
|---|---|---|---|---|---|
| 2026-04-21 18:30 | 54.58764 | 18.52597 | 133 ft | 0 kts | 357° |
| 2026-04-21 18:31 | 54.58757 | 18.52600 | 149 ft | 1 kts | 303° |
| 2026-04-21 18:31 | 54.58729 | 18.52606 | 224 ft | 7 kts | 273° |
| 2026-04-21 18:32 | 54.58723 | 18.52590 | 293 ft | 4 kts | 88° |
| 2026-04-21 18:32 | 54.58743 | 18.52775 | 523 ft | 31 kts | 70° |
| 2026-04-21 18:32 | 54.58753 | 18.53265 | 716 ft | 52 kts | 98° |
| 2026-04-21 18:32 | 54.58480 | 18.53834 | 788 ft | 69 kts | 150° |
| 2026-04-21 18:33 | 54.57971 | 18.54328 | 868 ft | 94 kts | 150° |
| 2026-04-21 18:33 | 54.57355 | 18.54828 | 998 ft | 100 kts | 158° |
| 2026-04-21 18:33 | 54.56705 | 18.55173 | 1157 ft | 103 kts | 165° |
| 2026-04-21 18:33 | 54.56012 | 18.55473 | 1298 ft | 100 kts | 162° |
| 2026-04-21 18:34 | 54.55367 | 18.55820 | 1504 ft | 97 kts | 159° |
| 2026-04-21 18:34 | 54.54664 | 18.56086 | 1579 ft | 112 kts | 169° |
| 2026-04-21 18:34 | 54.53828 | 18.56277 | 1614 ft | 131 kts | 169° |
| 2026-04-21 18:34 | 54.52872 | 18.56446 | 1658 ft | 144 kts | 173° |
| 2026-04-21 18:35 | 54.52197 | 18.56570 | 1678 ft | 147 kts | 170° |
| 2026-04-21 18:35 | 54.50820 | 18.56740 | 1743 ft | 151 kts | 175° |
| 2026-04-21 18:35 | 54.49746 | 18.56842 | 1681 ft | 158 kts | 175° |
| 2026-04-21 18:35 | 54.48679 | 18.56921 | 1715 ft | 158 kts | 179° |
| 2026-04-21 18:36 | 54.47601 | 18.56803 | 1778 ft | 150 kts | 188° |
| 2026-04-21 18:36 | 54.46574 | 18.56507 | 1718 ft | 153 kts | 191° |
| 2026-04-21 18:36 | 54.45521 | 18.56145 | 1666 ft | 151 kts | 192° |
| 2026-04-21 18:36 | 54.44449 | 18.55866 | 1485 ft | 161 kts | 188° |
| 2026-04-21 18:37 | 54.43362 | 18.55697 | 1312 ft | 154 kts | 185° |
| 2026-04-21 18:37 | 54.42329 | 18.55645 | 1175 ft | 141 kts | 186° |
| 2026-04-21 18:37 | 54.41446 | 18.55290 | 1193 ft | 119 kts | 209° |
| 2026-04-21 18:37 | 54.40785 | 18.54649 | 1236 ft | 110 kts | 217° |
| 2026-04-21 18:38 | 54.40121 | 18.53909 | 1097 ft | 119 kts | 218° |
| 2026-04-21 18:38 | 54.39417 | 18.53230 | 1115 ft | 112 kts | 210° |
| 2026-04-21 18:38 | 54.38709 | 18.53363 | 1167 ft | 100 kts | 149° |
| 2026-04-21 18:38 | 54.38019 | 18.53676 | 1170 ft | 108 kts | 183° |
| 2026-04-21 18:39 | 54.37383 | 18.53156 | 1235 ft | 100 kts | 229° |
| 2026-04-21 18:39 | 54.36874 | 18.52372 | 1174 ft | 94 kts | 228° |
| 2026-04-21 18:39 | 54.36595 | 18.51447 | 978 ft | 91 kts | 283° |
| 2026-04-21 18:39 | 54.36792 | 18.50434 | 812 ft | 87 kts | 299° |
| 2026-04-21 18:40 | 54.37025 | 18.49533 | 665 ft | 73 kts | 301° |
| 2026-04-21 18:40 | 54.37161 | 18.48994 | 559 ft | 33 kts | 299° |
| 2026-04-21 18:40 | 54.37216 | 18.48792 | 520 ft | 23 kts | 294° |
| 2026-04-21 18:40 | 54.37302 | 18.48401 | 651 ft | 55 kts | 297° |
| 2026-04-21 18:41 | 54.37499 | 18.47578 | 784 ft | 87 kts | 298° |
| 2026-04-21 18:41 | 54.37743 | 18.46593 | 830 ft | 91 kts | 300° |
| 2026-04-21 18:41 | 54.37984 | 18.45584 | 878 ft | 92 kts | 301° |
| 2026-04-21 18:41 | 54.38355 | 18.44918 | 1006 ft | 73 kts | 352° |
| 2026-04-21 18:42 | 54.38735 | 18.45427 | 1067 ft | 84 kts | 64° |
| 2026-04-21 18:42 | 54.38622 | 18.46395 | 1118 ft | 87 kts | 112° |
| 2026-04-21 18:42 | 54.38305 | 18.47275 | 1085 ft | 88 kts | 112° |
| 2026-04-21 18:42 | 54.38002 | 18.48212 | 1002 ft | 90 kts | 110° |
| 2026-04-21 18:43 | 54.37722 | 18.49083 | 863 ft | 74 kts | 109° |
| 2026-04-21 18:43 | 54.37460 | 18.49690 | 884 ft | 61 kts | 143° |
| 2026-04-21 18:43 | 54.37094 | 18.49489 | 685 ft | 56 kts | 261° |
| 2026-04-21 18:43 | 54.37194 | 18.48885 | 554 ft | 50 kts | 298° |
| 2026-04-21 18:44 | 54.37292 | 18.48498 | 499 ft | 15 kts | 291° |
| 2026-04-21 18:44 | 54.37337 | 18.48284 | 545 ft | 41 kts | 300° |
| 2026-04-21 18:44 | 54.37491 | 18.47652 | 599 ft | 73 kts | 299° |
| 2026-04-21 18:44 | 54.37715 | 18.46737 | 634 ft | 91 kts | 297° |
| 2026-04-21 18:45 | 54.37965 | 18.45743 | 670 ft | 89 kts | 297° |
| 2026-04-21 18:45 | 54.38230 | 18.44947 | 761 ft | 65 kts | 323° |
| 2026-04-21 18:45 | 54.38620 | 18.44908 | 848 ft | 60 kts | 26° |
| 2026-04-21 18:45 | 54.38782 | 18.45636 | 888 ft | 75 kts | 83° |
| 2026-04-21 18:46 | 54.38569 | 18.46439 | 912 ft | 73 kts | 117° |
| 2026-04-21 18:46 | 54.38299 | 18.47181 | 920 ft | 75 kts | 107° |
| 2026-04-21 18:46 | 54.38057 | 18.48041 | 854 ft | 84 kts | 103° |
| 2026-04-21 18:46 | 54.37806 | 18.48969 | 816 ft | 87 kts | 111° |
| 2026-04-21 18:47 | 54.37460 | 18.49783 | 858 ft | 75 kts | 143° |
| 2026-04-21 18:47 | 54.37085 | 18.49577 | 687 ft | 59 kts | 259° |
| 2026-04-21 18:47 | 54.37168 | 18.48987 | 557 ft | 43 kts | 300° |
| 2026-04-21 18:47 | 54.37260 | 18.48620 | 512 ft | 22 kts | 299° |
| 2026-04-21 18:48 | 54.37305 | 18.48404 | 605 ft | 41 kts | 295° |
| 2026-04-21 18:48 | 54.37481 | 18.47702 | 636 ft | 78 kts | 297° |
| 2026-04-21 18:48 | 54.37701 | 18.46796 | 666 ft | 88 kts | 297° |
| 2026-04-21 18:48 | 54.37959 | 18.45749 | 750 ft | 103 kts | 296° |
| 2026-04-21 18:49 | 54.38250 | 18.44570 | 752 ft | 108 kts | 294° |
| 2026-04-21 18:49 | 54.38495 | 18.43397 | 840 ft | 102 kts | 292° |
| 2026-04-21 18:49 | 54.38646 | 18.42633 | 858 ft | 95 kts | 301° |
| 2026-04-21 18:49 | 54.39281 | 18.42317 | 949 ft | 64 kts | 25° |
| 2026-04-21 18:50 | 54.39668 | 18.42664 | 940 ft | 64 kts | 25° |
| 2026-04-21 18:50 | 54.40102 | 18.43044 | 914 ft | 74 kts | 26° |
| 2026-04-21 18:50 | 54.40543 | 18.43457 | 992 ft | 71 kts | 26° |
| 2026-04-21 18:50 | 54.40940 | 18.43938 | 1054 ft | 70 kts | 61° |
| 2026-04-21 18:51 | 54.40818 | 18.44675 | 1114 ft | 64 kts | 119° |
| 2026-04-21 18:51 | 54.40531 | 18.45492 | 1112 ft | 97 kts | 115° |
| 2026-04-21 18:51 | 54.40166 | 18.46592 | 1127 ft | 112 kts | 114° |
| 2026-04-21 18:51 | 54.39778 | 18.47815 | 1186 ft | 116 kts | 112° |
| 2026-04-21 18:52 | 54.39427 | 18.49075 | 1176 ft | 118 kts | 109° |
| 2026-04-21 18:52 | 54.39091 | 18.50353 | 1200 ft | 117 kts | 108° |
| 2026-04-21 18:52 | 54.38766 | 18.51616 | 1299 ft | 114 kts | 108° |
| 2026-04-21 18:52 | 54.38428 | 18.52791 | 1331 ft | 107 kts | 120° |
| 2026-04-21 18:53 | 54.37791 | 18.53079 | 1325 ft | 95 kts | 202° |
| 2026-04-21 18:53 | 54.37169 | 18.52745 | 1168 ft | 91 kts | 206° |
| 2026-04-21 18:53 | 54.36626 | 18.52254 | 1045 ft | 91 kts | 240° |
| 2026-04-21 18:53 | 54.36605 | 18.51262 | 824 ft | 88 kts | 295° |
| 2026-04-21 18:54 | 54.36827 | 18.50315 | 724 ft | 81 kts | 302° |
| 2026-04-21 18:54 | 54.37034 | 18.49523 | 632 ft | 64 kts | 302° |
| 2026-04-21 18:54 | 54.37183 | 18.48930 | 532 ft | 41 kts | 299° |
| 2026-04-21 18:54 | 54.37253 | 18.48633 | 542 ft | 36 kts | 293° |
| 2026-04-21 18:55 | 54.37349 | 18.48233 | 600 ft | 75 kts | 294° |
| 2026-04-21 18:55 | 54.37726 | 18.46717 | 683 ft | 115 kts | 298° |
| 2026-04-21 18:55 | 54.38047 | 18.45412 | 738 ft | 117 kts | 304° |
| 2026-04-21 18:55 | 54.38655 | 18.45263 | 907 ft | 88 kts | 21° |
| 2026-04-21 18:56 | 54.39069 | 18.45942 | 1001 ft | 81 kts | 47° |
| 2026-04-21 18:56 | 54.39371 | 18.46699 | 1088 ft | 75 kts | 51° |
| 2026-04-21 18:56 | 54.39623 | 18.47420 | 1188 ft | 64 kts | 51° |
| 2026-04-21 18:56 | 54.39913 | 18.48040 | 1127 ft | 75 kts | 38° |
| 2026-04-21 18:57 | 54.40382 | 18.48434 | 1120 ft | 74 kts | 11° |
| 2026-04-21 18:57 | 54.40885 | 18.48575 | 1115 ft | 71 kts | 6° |
| 2026-04-21 18:57 | 54.41226 | 18.48381 | 1173 ft | 50 kts | 281° |
| 2026-04-21 18:57 | 54.40920 | 18.48074 | 1036 ft | 65 kts | 140° |
| 2026-04-21 18:58 | 54.40592 | 18.48887 | 1041 ft | 106 kts | 111° |
| 2026-04-21 18:58 | 54.40188 | 18.50061 | 1129 ft | 124 kts | 113° |
| 2026-04-21 18:58 | 54.39771 | 18.51400 | 1198 ft | 128 kts | 111° |
| 2026-04-21 18:58 | 54.39418 | 18.52726 | 1250 ft | 116 kts | 107° |
| 2026-04-21 18:59 | 54.38821 | 18.53558 | 1235 ft | 112 kts | 179° |
| 2026-04-21 18:59 | 54.38124 | 18.53333 | 1206 ft | 97 kts | 205° |
| 2026-04-21 18:59 | 54.37522 | 18.52951 | 1127 ft | 95 kts | 211° |
| 2026-04-21 18:59 | 54.36896 | 18.52443 | 1007 ft | 99 kts | 215° |
| 2026-04-21 19:00 | 54.36587 | 18.51698 | 891 ft | 71 kts | 279° |
| 2026-04-21 19:00 | 54.36720 | 18.50770 | 739 ft | 92 kts | 297° |
| 2026-04-21 19:00 | 54.36997 | 18.49668 | 604 ft | 105 kts | 296° |
| 2026-04-21 19:00 | 54.37232 | 18.48732 | 522 ft | 53 kts | 297° |
| 2026-04-21 19:01 | 54.37327 | 18.48334 | 585 ft | 46 kts | 296° |
| 2026-04-21 19:01 | 54.37619 | 18.48131 | 788 ft | 52 kts | 14° |
| 2026-04-21 19:01 | 54.37969 | 18.48297 | 870 ft | 53 kts | 12° |
| 2026-04-21 19:01 | 54.38373 | 18.48456 | 903 ft | 60 kts | 15° |
| 2026-04-21 19:02 | 54.38782 | 18.48562 | 907 ft | 61 kts | 4° |
| 2026-04-21 19:02 | 54.39263 | 18.48622 | 898 ft | 74 kts | 2° |
| 2026-04-21 19:02 | 54.39777 | 18.48537 | 915 ft | 67 kts | 356° |
| 2026-04-21 19:02 | 54.40184 | 18.48528 | 829 ft | 54 kts | 7° |
| 2026-04-21 19:03 | 54.40563 | 18.48548 | 766 ft | 58 kts | 2° |
| 2026-04-21 19:03 | 54.40985 | 18.48609 | 797 ft | 64 kts | 5° |
| 2026-04-21 19:03 | 54.41358 | 18.48518 | 937 ft | 55 kts | 284° |
| 2026-04-21 19:03 | 54.41054 | 18.48186 | 1019 ft | 54 kts | 190° |
| 2026-04-21 19:04 | 54.40832 | 18.48438 | 885 ft | 45 kts | 51° |
| 2026-04-21 19:04 | 54.41121 | 18.48619 | 808 ft | 49 kts | 1° |
| 2026-04-21 19:04 | 54.41332 | 18.48360 | 778 ft | 54 kts | 265° |
| 2026-04-21 19:04 | 54.41039 | 18.48098 | 743 ft | 49 kts | 185° |
| 2026-04-21 19:05 | 54.40838 | 18.48366 | 713 ft | 40 kts | 76° |
| 2026-04-21 19:05 | 54.41042 | 18.48594 | 753 ft | 36 kts | 4° |
| 2026-04-21 19:05 | 54.41310 | 18.48467 | 773 ft | 45 kts | 325° |
| 2026-04-21 19:05 | 54.41210 | 18.48087 | 818 ft | 46 kts | 201° |
| 2026-04-21 19:06 | 54.40893 | 18.48106 | 752 ft | 44 kts | 165° |
| 2026-04-21 19:06 | 54.40854 | 18.48505 | 729 ft | 36 kts | 34° |
| 2026-04-21 19:06 | 54.41050 | 18.48445 | 732 ft | 47 kts | 273° |
| 2026-04-21 19:06 | 54.40763 | 18.48235 | 766 ft | 54 kts | 170° |
| 2026-04-21 19:07 | 54.40349 | 18.48340 | 825 ft | 68 kts | 174° |
| 2026-04-21 19:07 | 54.39859 | 18.48462 | 901 ft | 77 kts | 177° |
| 2026-04-21 19:07 | 54.39297 | 18.48566 | 951 ft | 85 kts | 179° |
| 2026-04-21 19:07 | 54.38862 | 18.49006 | 1000 ft | 70 kts | 114° |
| 2026-04-21 19:08 | 54.38607 | 18.49790 | 997 ft | 81 kts | 111° |
| 2026-04-21 19:08 | 54.38311 | 18.50665 | 938 ft | 87 kts | 116° |
| 2026-04-21 19:08 | 54.37828 | 18.51017 | 966 ft | 74 kts | 187° |
| 2026-04-21 19:08 | 54.37517 | 18.50831 | 888 ft | 70 kts | 213° |
| 2026-04-21 19:09 | 54.37093 | 18.50443 | 742 ft | 69 kts | 220° |
| 2026-04-21 19:09 | 54.36971 | 18.49823 | 666 ft | 54 kts | 293° |
| 2026-04-21 19:09 | 54.37108 | 18.49230 | 572 ft | 53 kts | 299° |
| 2026-04-21 19:09 | 54.37203 | 18.48848 | 507 ft | 10 kts | 298° |
| 2026-04-21 19:10 | 54.37251 | 18.48656 | 653 ft | 45 kts | 297° |
| 2026-04-21 19:10 | 54.37438 | 18.47871 | 675 ft | 91 kts | 299° |
| 2026-04-21 19:10 | 54.37702 | 18.46817 | 776 ft | 101 kts | 300° |
| 2026-04-21 19:10 | 54.37968 | 18.45715 | 829 ft | 96 kts | 299° |
| 2026-04-21 19:11 | 54.38244 | 18.44764 | 886 ft | 83 kts | 319° |
| 2026-04-21 19:11 | 54.38685 | 18.44902 | 934 ft | 79 kts | 60° |
| 2026-04-21 19:11 | 54.38564 | 18.45869 | 911 ft | 85 kts | 102° |
| 2026-04-21 19:11 | 54.38392 | 18.46837 | 905 ft | 84 kts | 95° |
| 2026-04-21 19:12 | 54.38431 | 18.47810 | 955 ft | 87 kts | 59° |
| 2026-04-21 19:12 | 54.38871 | 18.48562 | 1071 ft | 98 kts | 28° |
| 2026-04-21 19:12 | 54.39513 | 18.49106 | 1108 ft | 106 kts | 22° |
| 2026-04-21 19:12 | 54.40109 | 18.49550 | 1052 ft | 75 kts | 17° |
| 2026-04-21 19:13 | 54.40538 | 18.49870 | 1069 ft | 67 kts | 22° |
| 2026-04-21 19:13 | 54.41000 | 18.50350 | 1107 ft | 83 kts | 31° |
| 2026-04-21 19:13 | 54.41446 | 18.50944 | 1327 ft | 80 kts | 33° |
| 2026-04-21 19:13 | 54.41907 | 18.51533 | 1413 ft | 85 kts | 32° |
| 2026-04-21 19:14 | 54.42416 | 18.52164 | 1465 ft | 94 kts | 32° |
| 2026-04-21 19:14 | 54.42934 | 18.52891 | 1486 ft | 98 kts | 36° |
| 2026-04-21 19:14 | 54.43430 | 18.53677 | 1579 ft | 97 kts | 36° |
| 2026-04-21 19:14 | 54.43972 | 18.54348 | 1705 ft | 93 kts | 28° |
| 2026-04-21 19:15 | 54.44527 | 18.54938 | 1688 ft | 98 kts | 26° |
| 2026-04-21 19:15 | 54.45183 | 18.55358 | 1618 ft | 102 kts | 13° |
| 2026-04-21 19:15 | 54.45899 | 18.55494 | 1527 ft | 106 kts | 3° |
| 2026-04-21 19:15 | 54.46619 | 18.55514 | 1525 ft | 101 kts | 4° |
| 2026-04-21 19:16 | 54.47299 | 18.55795 | 1513 ft | 101 kts | 18° |
| 2026-04-21 19:16 | 54.47963 | 18.56163 | 1564 ft | 98 kts | 17° |
| 2026-04-21 19:16 | 54.48630 | 18.56377 | 1613 ft | 97 kts | 7° |
| 2026-04-21 19:16 | 54.49334 | 18.56402 | 1567 ft | 106 kts | 2° |
| 2026-04-21 19:17 | 54.50816 | 18.56575 | 1484 ft | 105 kts | 9° |
| 2026-04-21 19:17 | 54.51518 | 18.56653 | 1537 ft | 99 kts | 3° |
| 2026-04-21 19:17 | 54.52186 | 18.56643 | 1577 ft | 97 kts | 0° |
| 2026-04-21 19:18 | 54.52872 | 18.56580 | 1580 ft | 97 kts | 356° |
| 2026-04-21 19:18 | 54.53490 | 18.56330 | 1713 ft | 92 kts | 353° |
| 2026-04-21 19:18 | 54.54159 | 18.56146 | 1661 ft | 101 kts | 353° |
| 2026-04-21 19:18 | 54.54869 | 18.55795 | 1422 ft | 112 kts | 345° |
| 2026-04-21 19:19 | 54.55609 | 18.55310 | 1215 ft | 116 kts | 339° |
| 2026-04-21 19:19 | 54.56322 | 18.54607 | 1036 ft | 119 kts | 325° |
| 2026-04-21 19:19 | 54.56925 | 18.53698 | 849 ft | 111 kts | 319° |
| 2026-04-21 19:19 | 54.57446 | 18.52789 | 747 ft | 102 kts | 318° |
| 2026-04-21 19:20 | 54.57928 | 18.51971 | 620 ft | 89 kts | 317° |
| 2026-04-21 19:20 | 54.58308 | 18.51347 | 476 ft | 69 kts | 326° |
| 2026-04-21 19:20 | 54.58691 | 18.51398 | 272 ft | 52 kts | 69° |
| 2026-04-21 19:20 | 54.58721 | 18.51938 | 175 ft | 33 kts | 80° |
| 2026-04-21 19:21 | 54.58731 | 18.52172 | 138 ft | 14 kts | 51° |
| 2026-04-21 19:21 | 54.58758 | 18.52267 | 140 ft | 5 kts | 77° |
| 2026-04-21 19:21 | 54.58760 | 18.52287 | 140 ft | 0 kts | 87° |